Time;durP1;ratioP1;P1;durP2;ratioP2;P2;SDS_P1;SDS_P2;PMS_P1;PMS_P2;Temp;Humidity;BMP_temperature;BMP_pressure;BME280_temperature;BME280_humidity;BME280_pressure;Samples;Min_cycle;Max_cycle;Signal;HPM_P1;HPM_P2
2022/06/26 00:00:46;;;;;;;;;;;;;;;20.02;100.00;101363.28;4962487;29;19929;-82
2022/06/26 00:03:12;;;;;;;;;;;;;;;20.00;100.00;101366.28;4961070;28;19973;-81
2022/06/26 00:05:37;;;;;;;;;;;;;;;20.00;100.00;101365.44;4960442;29;20001;-82
2022/06/26 00:08:03;;;;;;;;;;;;;;;20.03;100.00;101364.94;4977777;28;19910;-81
2022/06/26 00:10:28;;;;;;;;;;;;;;;20.05;100.00;101369.09;4963081;29;19911;-81
2022/06/26 00:12:53;;;;;;;;;;;;;;;20.07;100.00;101374.31;4963611;29;19962;-82
2022/06/26 00:15:18;;;;;;;;;;;;;;;20.10;100.00;101376.56;4964029;29;20309;-82
2022/06/26 00:17:44;;;;;;;;;;;;;;;20.07;100.00;101377.88;4963363;29;19921;-82
2022/06/26 00:20:10;;;;;;;;;;;;;;;20.07;100.00;101379.78;4945361;29;19925;-82
2022/06/26 00:22:35;;;;;;;;;;;;;;;20.09;100.00;101375.69;4959577;29;19992;-81
2022/06/26 00:25:01;;;;;;;;;;;;;;;20.11;100.00;101383.66;4963878;29;19911;-82
2022/06/26 00:27:33;;;;;;;;;;;;;;;20.11;100.00;101387.22;4960099;28;19914;-82
2022/06/26 00:29:59;;;;;;;;;;;;;;;20.13;100.00;101384.22;4944069;29;19910;-82
2022/06/26 00:32:24;;;;;;;;;;;;;;;20.13;100.00;101385.06;4942843;29;19926;-82
2022/06/26 00:34:49;;;;;;;;;;;;;;;20.13;100.00;101381.50;4960133;29;20308;-82
2022/06/26 00:37:14;;;;;;;;;;;;;;;20.13;100.00;101382.34;4965689;28;20230;-82
2022/06/26 00:39:39;;;;;;;;;;;;;;;20.13;100.00;101393.28;4971655;28;20355;-82
2022/06/26 00:42:05;;;;;;;;;;;;;;;20.11;100.00;101387.22;4976176;28;19928;-82
2022/06/26 00:44:30;;;;;;;;;;;;;;;20.10;100.00;101393.78;4964232;28;20383;-82
2022/06/26 00:46:55;;;;;;;;;;;;;;;20.09;100.00;101392.09;4959481;29;19914;-82
2022/06/26 00:49:21;;;;;;;;;;;;;;;20.10;100.00;101403.88;4957341;28;19910;-82
2022/06/26 00:51:47;;;;;;;;;;;;;;;20.06;100.00;101389.03;4959582;29;20348;-82
2022/06/26 00:54:13;;;;;;;;;;;;;;;20.04;100.00;101393.94;4958802;29;19921;-82
2022/06/26 00:56:38;;;;;;;;;;;;;;;20.03;100.00;101394.97;4959223;29;19914;-82
2022/06/26 00:59:04;;;;;;;;;;;;;;;20.03;100.00;101394.97;4960436;29;19914;-81
2022/06/26 01:01:29;;;;;;;;;;;;;;;20.01;100.00;101397.97;4961408;29;19925;-82
2022/06/26 01:03:54;;;;;;;;;;;;;;;20.03;100.00;101403.19;4960090;28;19957;-81
2022/06/26 01:06:20;;;;;;;;;;;;;;;20.06;100.00;101402.69;4960206;29;19915;-82
2022/06/26 01:08:46;;;;;;;;;;;;;;;20.10;100.00;101409.34;4959900;28;19915;-82
2022/06/26 01:11:18;;;;;;;;;;;;;;;20.12;100.00;101393.50;4960088;28;19922;-82
2022/06/26 01:13:47;;;;;;;;;;;;;;;20.14;100.00;101405.84;4960550;29;19924;-82
2022/06/26 01:16:13;;;;;;;;;;;;;;;20.13;100.00;101397.88;4973632;28;19913;-81
2022/06/26 01:18:39;;;;;;;;;;;;;;;20.14;100.00;101396.81;4961425;28;19946;-82
2022/06/26 01:21:05;;;;;;;;;;;;;;;20.15;100.00;101398.47;4959793;29;19914;-82
2022/06/26 01:23:30;;;;;;;;;;;;;;;20.20;100.00;101401.31;4959367;28;20032;-82
2022/06/26 01:25:55;;;;;;;;;;;;;;;20.24;100.00;101409.81;4959703;29;20256;-82
2022/06/26 01:28:21;;;;;;;;;;;;;;;20.26;100.00;101402.19;4943125;29;20269;-82
2022/06/26 01:30:46;;;;;;;;;;;;;;;20.30;100.00;101401.47;4960844;29;20276;-82
2022/06/26 01:33:11;;;;;;;;;;;;;;;20.35;100.00;101400.69;4958854;29;20325;-82
2022/06/26 01:35:36;;;;;;;;;;;;;;;20.38;100.00;101405.66;4940061;29;19994;-82
2022/06/26 01:38:12;;;;;;;;;;;;;;;20.41;100.00;101405.16;4958714;29;19965;-82
2022/06/26 01:40:37;;;;;;;;;;;;;;;20.45;100.00;101400.84;4959785;28;20009;-81
2022/06/26 01:43:03;;;;;;;;;;;;;;;20.50;100.00;101397.38;4959339;28;19957;-82
2022/06/26 01:45:28;;;;;;;;;;;;;;;20.51;100.00;101397.16;4959006;29;19968;-82
2022/06/26 01:47:56;;;;;;;;;;;;;;;20.53;100.00;101386.81;4957737;28;19929;-81
2022/06/26 01:50:21;;;;;;;;;;;;;;;20.52;100.00;101379.66;4958571;29;19911;-82
2022/06/26 01:52:46;;;;;;;;;;;;;;;20.53;100.00;101377.75;4959376;29;19922;-81
2022/06/26 01:55:12;;;;;;;;;;;;;;;20.53;100.00;101385.94;4977272;28;19915;-82
2022/06/26 01:57:37;;;;;;;;;;;;;;;20.51;100.00;101391.69;4942825;29;19914;-82
2022/06/26 02:00:05;;;;;;;;;;;;;;;20.52;100.00;101385.13;4954776;28;19914;-82
2022/06/26 02:02:30;;;;;;;;;;;;;;;20.50;100.00;101394.66;4959631;28;19910;-81
2022/06/26 02:04:55;;;;;;;;;;;;;;;20.51;100.00;101383.47;4960875;29;20005;-82
2022/06/26 02:07:20;;;;;;;;;;;;;;;20.48;100.00;101378.47;4944499;29;19914;-83
2022/06/26 02:15:14;;;;;;;;;;;;;;;20.37;100.00;101385.72;4963449;28;19922;-82
2022/06/26 02:17:39;;;;;;;;;;;;;;;20.32;100.00;101385.63;4962508;29;20008;-82
2022/06/26 02:20:04;;;;;;;;;;;;;;;20.28;100.00;101383.66;4964195;29;19914;-82
2022/06/26 02:22:30;;;;;;;;;;;;;;;20.27;100.00;101385.56;4966234;29;20012;-82
2022/06/26 02:24:55;;;;;;;;;;;;;;;20.26;100.00;101385.78;4977647;28;20256;-82
2022/06/26 02:27:20;;;;;;;;;;;;;;;20.23;100.00;101386.28;4981086;28;20255;-82
2022/06/26 02:29:45;;;;;;;;;;;;;;;20.22;100.00;101390.94;4979214;28;19914;-81
2022/06/26 02:32:11;;;;;;;;;;;;;;;20.19;100.00;101386.78;4966850;28;20267;-82
2022/06/26 02:34:36;;;;;;;;;;;;;;;20.18;100.00;101384.31;4961147;29;19915;-81
2022/06/26 02:37:01;;;;;;;;;;;;;;;20.15;100.00;101391.09;4979822;29;19950;-83
2022/06/26 02:39:26;;;;;;;;;;;;;;;20.14;100.00;101389.44;4978520;28;19987;-81
2022/06/26 02:41:51;;;;;;;;;;;;;;;20.13;100.00;101393.28;4974696;28;20514;-82
2022/06/26 02:44:17;;;;;;;;;;;;;;;20.13;100.00;101396.00;4944009;29;19986;-82
2022/06/26 02:46:42;;;;;;;;;;;;;;;20.11;100.00;101395.41;4964094;29;20256;-82
2022/06/26 02:49:07;;;;;;;;;;;;;;;20.14;100.00;101405.84;4962072;29;19921;-81
2022/06/26 02:51:32;;;;;;;;;;;;;;;20.16;100.00;101398.25;4961511;29;20272;-82
2022/06/26 02:53:58;;;;;;;;;;;;;;;20.18;100.00;101396.06;4962476;29;19946;-81
2022/06/26 02:56:23;;;;;;;;;;;;;;;20.23;100.00;101394.50;4959987;28;19947;-82
2022/06/26 02:58:48;;;;;;;;;;;;;;;20.31;100.00;101394.09;4963920;29;19918;-82
2022/06/26 03:01:13;;;;;;;;;;;;;;;20.37;100.00;101391.19;4961848;29;20420;-82
2022/06/26 03:03:38;;;;;;;;;;;;;;;20.41;100.00;101395.06;4945589;29;19914;-81
2022/06/26 03:06:04;;;;;;;;;;;;;;;20.45;100.00;101389.91;4961485;29;19914;-82
2022/06/26 03:08:30;;;;;;;;;;;;;;;20.47;100.00;101381.47;4961919;28;19960;-82
2022/06/26 03:10:56;;;;;;;;;;;;;;;20.51;100.00;101378.00;4962935;29;19940;-82
2022/06/26 03:13:21;;;;;;;;;;;;;;;20.53;100.00;101375.88;4961888;28;19973;-82
2022/06/26 03:15:46;;;;;;;;;;;;;;;20.62;100.00;101377.06;4961851;29;19922;-82
2022/06/26 03:18:11;;;;;;;;;;;;;;;20.69;100.00;101367.88;4961690;28;19973;-82
2022/06/26 03:20:37;;;;;;;;;;;;;;;20.70;100.00;101373.09;4962998;28;19968;-83
2022/06/26 03:23:02;;;;;;;;;;;;;;;20.67;100.00;101375.50;4945281;29;19929;-81
2022/06/26 03:25:27;;;;;;;;;;;;;;;20.67;100.00;101379.06;4962254;29;19910;-82
2022/06/26 03:27:53;;;;;;;;;;;;;;;20.65;100.00;101379.31;4962930;28;19914;-82
2022/06/26 03:30:18;;;;;;;;;;;;;;;20.66;100.00;101380.13;4961063;29;20009;-82
2022/06/26 03:32:43;;;;;;;;;;;;;;;20.69;100.00;101378.81;4965768;29;19914;-82
2022/06/26 03:35:09;;;;;;;;;;;;;;;20.75;100.00;101370.41;4969549;29;19930;-81
2022/06/26 03:37:35;;;;;;;;;;;;;;;20.81;100.00;101368.56;4960749;29;19910;-81
2022/06/26 03:40:00;;;;;;;;;;;;;;;20.87;100.00;101376.59;4949617;28;19970;-82
2022/06/26 03:42:25;;;;;;;;;;;;;;;20.93;100.00;101390.34;4942336;29;19978;-82
2022/06/26 03:44:51;;;;;;;;;;;;;;;20.91;100.00;101393.31;4947862;29;19977;-82
2022/06/26 03:47:16;;;;;;;;;;;;;;;20.92;100.00;101394.16;4962748;28;20375;-82
2022/06/26 03:49:41;;;;;;;;;;;;;;;20.97;100.00;101394.22;4961604;29;19922;-81
2022/06/26 03:52:07;;;;;;;;;;;;;;;21.05;100.00;101394.59;4960348;29;19926;-83
2022/06/26 03:54:34;;;;;;;;;;;;;;;21.14;100.00;101385.97;4961911;29;19950;-81
2022/06/26 03:56:59;;;;;;;;;;;;;;;21.77;100.00;101390.75;4944870;29;20341;-82
2022/06/26 03:59:24;;;;;;;;;;;;;;;23.27;100.00;101394.22;4961501;29;19914;-82
2022/06/26 04:01:50;;;;;;;;;;;;;;;23.57;95.66;101392.66;4959766;28;19922;-82
2022/06/26 04:04:15;;;;;;;;;;;;;;;22.71;99.79;101386.56;4956220;28;19925;-81
2022/06/26 04:06:40;;;;;;;;;;;;;;;22.12;100.00;101386.69;4958901;29;19922;-81
2022/06/26 04:09:05;;;;;;;;;;;;;;;21.90;100.00;101397.72;4958601;28;20016;-82
2022/06/26 04:11:31;;;;;;;;;;;;;;;21.70;100.00;101386.59;4959938;29;20013;-81
2022/06/26 04:13:56;;;;;;;;;;;;;;;21.52;100.00;101388.63;4958654;29;19929;-82
2022/06/26 04:16:21;;;;;;;;;;;;;;;21.51;100.00;101392.41;4944938;29;19915;-81
2022/06/26 04:18:46;;;;;;;;;;;;;;;21.44;100.00;101386.31;4944671;29;20009;-82
2022/06/26 04:21:12;;;;;;;;;;;;;;;21.38;100.00;101384.59;4959377;29;19977;-82
2022/06/26 04:23:37;;;;;;;;;;;;;;;21.45;100.00;101387.97;4960379;28;19921;-81
2022/06/26 04:26:03;;;;;;;;;;;;;;;21.50;100.00;101388.03;4969582;28;19922;-82
2022/06/26 04:28:28;;;;;;;;;;;;;;;21.54;100.00;101386.44;4959158;29;19918;-82
2022/06/26 04:30:53;;;;;;;;;;;;;;;21.42;100.00;101382.19;4959117;29;19919;-82
2022/06/26 04:33:19;;;;;;;;;;;;;;;21.30;100.00;101385.06;4958651;28;20093;-81
2022/06/26 04:35:44;;;;;;;;;;;;;;;21.27;100.00;101385.56;4964645;28;19914;-81
2022/06/26 04:38:09;;;;;;;;;;;;;;;21.23;100.00;101379.78;4963730;28;19918;-82
2022/06/26 04:40:34;;;;;;;;;;;;;;;21.26;100.00;101378.44;4943796;28;19953;-81
2022/06/26 04:42:59;;;;;;;;;;;;;;;21.24;100.00;101383.34;4949387;29;19942;-82
2022/06/26 04:45:25;;;;;;;;;;;;;;;21.26;100.00;101392.13;4957772;29;19914;-82
2022/06/26 04:47:50;;;;;;;;;;;;;;;21.30;100.00;101390.53;4959363;29;20267;-82
2022/06/26 04:50:15;;;;;;;;;;;;;;;21.21;100.00;101398.34;4958495;29;19910;-81
2022/06/26 04:52:47;;;;;;;;;;;;;;;21.25;100.00;101399.47;4959272;29;19933;-82
2022/06/26 04:55:13;;;;;;;;;;;;;;;21.27;100.00;101402.81;4941314;28;19918;-82
2022/06/26 04:57:38;;;;;;;;;;;;;;;21.14;100.00;101385.97;4960317;28;19924;-81
2022/06/26 05:00:05;;;;;;;;;;;;;;;21.06;100.00;101374.38;4958881;29;19918;-81
2022/06/26 05:02:30;;;;;;;;;;;;;;;21.04;100.00;101364.75;4958957;28;19974;-81
2022/06/26 05:04:56;;;;;;;;;;;;;;;20.98;100.00;101365.78;4962250;29;19946;-81
2022/06/26 05:07:21;;;;;;;;;;;;;;;20.97;100.00;101381.38;4958392;28;19969;-81
2022/06/26 05:09:46;;;;;;;;;;;;;;;20.98;100.00;101384.94;4966098;29;20383;-81
2022/06/26 05:12:12;;;;;;;;;;;;;;;20.88;100.00;101385.63;4970505;29;19933;-81
2022/06/26 05:14:37;;;;;;;;;;;;;;;20.92;100.00;101397.72;4956655;28;19927;-81
2022/06/26 05:17:02;;;;;;;;;;;;;;;20.77;100.00;101381.13;4957030;29;19961;-81
2022/06/26 05:19:27;;;;;;;;;;;;;;;20.71;100.00;101387.59;4937504;28;20013;-80
2022/06/26 05:21:53;;;;;;;;;;;;;;;20.79;100.00;101398.09;4953192;29;20017;-81
2022/06/26 05:24:18;;;;;;;;;;;;;;;20.66;100.00;101388.31;4939619;29;19946;-82
2022/06/26 05:26:44;;;;;;;;;;;;;;;20.62;100.00;101385.28;4954312;29;19915;-81
2022/06/26 05:29:09;;;;;;;;;;;;;;;20.61;100.00;101374.59;4940366;29;19926;-81
2022/06/26 05:31:34;;;;;;;;;;;;;;;20.53;100.00;101375.88;4955435;29;19915;-80
2022/06/26 05:33:59;;;;;;;;;;;;;;;20.49;100.00;101377.41;4955606;28;19919;-81
2022/06/26 05:36:24;;;;;;;;;;;;;;;20.54;100.00;101382.97;4940148;29;19915;-80
2022/06/26 05:38:50;;;;;;;;;;;;;;;20.76;100.00;101373.97;4956707;29;19997;-81
2022/06/26 05:41:15;;;;;;;;;;;;;;;20.99;100.00;101381.97;4968595;28;19914;-81
2022/06/26 05:43:42;;;;;;;;;;;;;;;21.22;100.00;101388.22;4971648;28;19914;-81
2022/06/26 05:46:07;;;;;;;;;;;;;;;21.33;100.00;101396.31;4961255;28;20745;-81
2022/06/26 05:48:32;;;;;;;;;;;;;;;21.42;100.00;101396.69;4957196;29;19997;-81
2022/06/26 05:50:57;;;;;;;;;;;;;;;21.46;100.00;101400.59;4954780;28;20285;-80
2022/06/26 05:53:22;;;;;;;;;;;;;;;21.41;100.00;101403.25;4954767;29;20266;-81
2022/06/26 05:55:48;;;;;;;;;;;;;;;21.35;100.00;101405.09;4971389;28;20313;-81
2022/06/26 05:58:13;;;;;;;;;;;;;;;21.28;100.00;101420.06;4955253;28;20246;-81
2022/06/26 06:00:39;;;;;;;;;;;;;;;21.24;100.00;101418.91;4939858;29;19958;-81
2022/06/26 06:03:05;;;;;;;;;;;;;;;21.14;100.00;101413.31;4955035;29;19918;-81
2022/06/26 06:05:30;;;;;;;;;;;;;;;20.95;100.00;101399.94;4954414;28;19910;-82
2022/06/26 06:07:56;;;;;;;;;;;;;;;20.88;100.00;101399.31;4957666;29;20340;-82
2022/06/26 06:10:23;;;;;;;;;;;;;;;20.75;100.00;101388.72;4960984;28;19910;-83
2022/06/26 06:12:48;;;;;;;;;;;;;;;20.57;100.00;101377.00;4907943;29;19923;-83
2022/06/26 06:15:14;;;;;;;;;;;;;;;20.33;100.00;101380.97;4907680;29;19926;-83
2022/06/26 06:17:42;;;;;;;;;;;;;;;20.34;100.00;101377.19;4905106;29;19926;-83
2022/06/26 06:20:12;;;;;;;;;;;;;;;20.14;100.00;101383.16;4906260;29;19923;-82
2022/06/26 06:22:41;;;;;;;;;;;;;;;20.06;100.00;101383.56;4909614;29;19919;-81
2022/06/26 06:25:06;;;;;;;;;;;;;;;20.04;100.00;101391.19;4914305;29;19922;-83
2022/06/26 06:30:08;;;;;;;;;;;;;;;19.81;100.00;101379.34;5571030;23;19921;-83
2022/06/26 06:32:34;;;;;;;;;;;;;;;19.73;100.00;101381.63;5016268;28;19922;-84
2022/06/26 06:34:59;;;;;;;;;;;;;;;19.69;100.00;101379.41;5002381;28;19929;-81
2022/06/26 06:37:25;;;;;;;;;;;;;;;19.66;100.00;101381.78;4995840;28;19921;-81
2022/06/26 06:39:50;;;;;;;;;;;;;;;19.70;100.00;101372.03;4997395;28;19909;-82
2022/06/26 06:42:15;;;;;;;;;;;;;;;19.79;100.00;101367.00;4995211;28;20336;-80
2022/06/26 06:44:41;;;;;;;;;;;;;;;19.77;100.00;101367.25;5001437;28;19921;-80
2022/06/26 06:47:06;;;;;;;;;;;;;;;19.73;100.00;101365.25;5002041;28;19948;-79
2022/06/26 06:49:32;;;;;;;;;;;;;;;19.82;100.00;101380.16;4991729;28;19924;-80
2022/06/26 06:51:57;;;;;;;;;;;;;;;19.90;100.00;101387.94;4993550;28;19967;-80
2022/06/26 06:54:22;;;;;;;;;;;;;;;19.88;100.00;101392.84;4994155;28;19920;-81
2022/06/26 06:56:48;;;;;;;;;;;;;;;19.79;100.00;101391.56;4992206;28;19925;-80
2022/06/26 06:59:13;;;;;;;;;;;;;;;19.76;100.00;101413.91;4999178;28;19928;-81
2022/06/26 07:01:39;;;;;;;;;;;;;;;19.86;100.00;101423.09;5003682;28;19925;-80
2022/06/26 07:04:04;;;;;;;;;;;;;;;19.77;100.00;101421.88;5006609;28;19910;-81
2022/06/26 07:06:29;;;;;;;;;;;;;;;19.67;100.00;101410.78;4998497;28;19919;-80
2022/06/26 07:08:55;;;;;;;;;;;;;;;19.67;100.00;101399.84;4998526;28;20312;-78
2022/06/26 07:11:20;;;;;;;;;;;;;;;19.74;100.00;101389.59;4996654;28;19909;-80
2022/06/26 07:13:46;;;;;;;;;;;;;;;19.81;100.00;101389.44;5000568;28;19928;-82
2022/06/26 07:16:11;;;;;;;;;;;;;;;19.86;100.00;101381.31;4998743;28;20355;-79
2022/06/26 07:18:36;;;;;;;;;;;;;;;19.93;100.00;101381.97;4998778;28;19913;-80
2022/06/26 07:21:02;;;;;;;;;;;;;;;19.96;100.00;101400.59;4995332;28;19925;-81
2022/06/26 07:23:27;;;;;;;;;;;;;;;20.05;100.00;101412.78;5003618;28;19945;-82
2022/06/26 07:25:52;;;;;;;;;;;;;;;20.04;100.00;101435.72;5007335;28;20299;-83
2022/06/26 07:28:25;;;;;;;;;;;;;;;20.06;100.00;101449.97;5006803;28;19921;-79
2022/06/26 07:30:51;;;;;;;;;;;;;;;20.09;100.00;101459.56;4997818;28;19921;-80
2022/06/26 07:36:01;;;;;;;;;;;;;;;19.99;100.00;101456.66;4993540;28;20304;-81
2022/06/26 07:38:26;;;;;;;;;;;;;;;19.98;100.00;101450.38;5006686;28;19913;-82
2022/06/26 07:40:52;;;;;;;;;;;;;;;19.98;100.00;101444.91;4999243;28;19920;-80
2022/06/26 07:43:17;;;;;;;;;;;;;;;19.99;100.00;101441.09;4997373;28;19918;-81
2022/06/26 07:45:42;;;;;;;;;;;;;;;20.00;100.00;101441.91;4997632;28;19945;-80
2022/06/26 07:48:08;;;;;;;;;;;;;;;20.01;100.00;101447.16;4979247;28;19921;-80
2022/06/26 07:50:33;;;;;;;;;;;;;;;20.03;100.00;101457.81;4980180;28;20300;-82
2022/06/26 07:52:58;;;;;;;;;;;;;;;20.06;100.00;101457.31;4998119;28;19917;-80
2022/06/26 07:55:23;;;;;;;;;;;;;;;20.12;100.00;101465.38;4998501;28;20340;-80
2022/06/26 07:57:49;;;;;;;;;;;;;;;20.08;100.00;101450.53;4996058;28;20305;-79
2022/06/26 08:00:14;;;;;;;;;;;;;;;19.93;100.00;101436.59;4997141;28;19922;-80
2022/06/26 08:02:39;;;;;;;;;;;;;;;19.84;100.00;101443.56;4992398;28;19913;-80
2022/06/26 08:05:05;;;;;;;;;;;;;;;19.86;100.00;101441.41;4980936;28;19914;-81
2022/06/26 08:07:30;;;;;;;;;;;;;;;19.83;100.00;101437.25;4996323;28;19910;-80
2022/06/26 08:09:56;;;;;;;;;;;;;;;19.76;100.00;101425.66;4997902;28;19913;-79
2022/06/26 08:12:21;;;;;;;;;;;;;;;19.72;100.00;101391.72;4996396;28;19983;-79
2022/06/26 08:14:46;;;;;;;;;;;;;;;19.57;100.00;101384.06;4997410;28;20000;-80
2022/06/26 08:17:11;;;;;;;;;;;;;;;19.54;100.00;101390.03;4998448;28;20012;-80
2022/06/26 08:19:36;;;;;;;;;;;;;;;19.60;100.00;101394.50;4995104;28;19910;-81
2022/06/26 08:22:02;;;;;;;;;;;;;;;19.68;100.00;101398.75;4978608;28;19924;-79
2022/06/26 08:24:28;;;;;;;;;;;;;;;19.75;100.00;101418.56;4985599;28;19924;-79
2022/06/26 08:26:54;;;;;;;;;;;;;;;19.83;100.00;101450.91;4985307;28;19956;-80
2022/06/26 08:29:19;;;;;;;;;;;;;;;19.88;100.00;101493.88;4996681;28;19918;-79
2022/06/26 08:31:44;;;;;;;;;;;;;;;19.86;100.00;101493.28;4999755;28;20412;-80
2022/06/26 08:34:09;;;;;;;;;;;;;;;19.79;100.00;101484.44;4996197;28;19949;-81
2022/06/26 08:36:34;;;;;;;;;;;;;;;19.76;100.00;101482.19;4999204;28;19917;-81
2022/06/26 08:39:00;;;;;;;;;;;;;;;19.69;100.00;101472.22;5000146;28;19914;-81
2022/06/26 08:41:27;;;;;;;;;;;;;;;19.54;100.00;101465.63;4986903;28;19913;-83
2022/06/26 08:43:52;;;;;;;;;;;;;;;19.50;100.00;101424.31;5007670;28;19937;-82
2022/06/26 08:46:21;;;;;;;;;;;;;;;19.33;100.00;101415.25;4999224;28;19949;-80
2022/06/26 08:48:47;;;;;;;;;;;;;;;19.38;100.00;101412.63;4998105;28;19937;-81
2022/06/26 08:51:13;;;;;;;;;;;;;;;19.40;100.00;101414.06;4998640;28;19910;-81
2022/06/26 08:53:38;;;;;;;;;;;;;;;19.47;100.00;101414.72;4996051;28;19928;-81
2022/06/26 08:56:14;;;;;;;;;;;;;;;19.55;100.00;101421.69;4995806;28;19921;-80
2022/06/26 08:58:40;;;;;;;;;;;;;;;19.74;100.00;101413.34;4995383;28;20394;-80
2022/06/26 09:01:05;;;;;;;;;;;;;;;19.65;100.00;101418.38;4994537;28;19913;-80
2022/06/26 09:03:31;;;;;;;;;;;;;;;19.78;100.00;101407.13;4979671;28;19921;-80
2022/06/26 09:05:57;;;;;;;;;;;;;;;20.00;100.00;101410.00;4995710;28;19976;-80
2022/06/26 09:08:25;;;;;;;;;;;;;;;20.23;100.00;101410.88;4995151;28;19925;-80
2022/06/26 09:10:50;;;;;;;;;;;;;;;20.29;100.00;101407.97;4995235;28;19917;-79
2022/06/26 09:13:16;;;;;;;;;;;;;;;20.53;100.00;101408.69;4989581;28;20246;-80
2022/06/26 09:15:42;;;;;;;;;;;;;;;20.78;100.00;101410.13;4995554;28;19910;-81
2022/06/26 09:18:08;;;;;;;;;;;;;;;20.83;100.00;101405.53;4993393;28;19944;-81
2022/06/26 09:20:34;;;;;;;;;;;;;;;20.82;100.00;101416.72;4995636;28;19920;-81
2022/06/26 09:23:00;;;;;;;;;;;;;;;20.62;100.00;101417.25;4993779;28;19910;-82
2022/06/26 09:25:39;;;;;;;;;;;;;;;20.62;100.00;101401.69;4996191;28;19920;-82
2022/06/26 09:28:08;;;;;;;;;;;;;;;20.68;100.00;101382.63;4991199;28;19933;-82
2022/06/26 09:30:33;;;;;;;;;;;;;;;20.50;100.00;101370.88;4991296;28;19929;-82
2022/06/26 09:33:00;;;;;;;;;;;;;;;20.54;100.00;101374.78;4996158;28;19989;-81
2022/06/26 09:35:26;;;;;;;;;;;;;;;20.52;100.00;101387.03;4989566;28;20316;-81
2022/06/26 09:37:51;;;;;;;;;;;;;;;20.59;100.00;101395.88;4981449;28;19914;-81
2022/06/26 09:40:16;;;;;;;;;;;;;;;20.63;100.00;101397.06;4975559;28;19925;-81
2022/06/26 09:42:41;;;;;;;;;;;;;;;20.48;100.00;101380.41;4986827;28;19988;-82
2022/06/26 09:45:08;;;;;;;;;;;;;;;20.52;100.00;101390.59;4996878;28;19993;-80
2022/06/26 09:47:38;;;;;;;;;;;;;;;20.61;100.00;101371.88;4997323;28;19910;-82
2022/06/26 09:50:08;;;;;;;;;;;;;;;20.67;100.00;101376.34;4984053;28;19910;-82
2022/06/26 09:52:33;;;;;;;;;;;;;;;20.75;100.00;101370.41;4981864;28;19940;-81
2022/06/26 09:55:00;;;;;;;;;;;;;;;20.90;100.00;101375.28;5004144;28;19956;-82
2022/06/26 09:57:26;;;;;;;;;;;;;;;21.08;100.00;101360.44;5016475;28;19929;-81
2022/06/26 09:59:51;;;;;;;;;;;;;;;21.28;100.00;101365.31;5011898;28;20002;-81
2022/06/26 10:07:49;;;;;;;;;;;;;;;21.75;100.00;101376.47;4987778;28;20260;-82
2022/06/26 10:10:15;;;;;;;;;;;;;;;21.80;100.00;101378.47;4974946;28;19963;-81
2022/06/26 10:12:41;;;;;;;;;;;;;;;21.87;100.00;101389.22;4978650;28;19921;-79
2022/06/26 10:15:07;;;;;;;;;;;;;;;21.67;100.00;101387.09;4995634;28;19972;-80
2022/06/26 10:17:45;;;;;;;;;;;;;;;21.77;100.00;101390.75;4993956;28;19975;-81
2022/06/26 10:20:11;;;;;;;;;;;;;;;21.73;100.00;101392.38;5001490;28;19910;-80
2022/06/26 10:22:38;;;;;;;;;;;;;;;21.77;100.00;101396.25;4995526;28;19921;-82
2022/06/26 10:25:05;;;;;;;;;;;;;;;21.69;100.00;101404.94;4993653;28;19977;-81
2022/06/26 10:27:34;;;;;;;;;;;;;;;21.36;100.00;101356.69;4994281;28;20388;-80
2022/06/26 10:30:05;;;;;;;;;;;;;;;21.21;100.00;101370.16;4993960;28;19990;-81
2022/06/26 10:32:30;;;;;;;;;;;;;;;21.36;100.00;101373.09;4995061;28;19914;-81
2022/06/26 10:34:56;;;;;;;;;;;;;;;21.63;100.00;101377.75;4995140;28;19941;-80
2022/06/26 10:37:21;;;;;;;;;;;;;;;21.85;100.00;101383.16;4996022;28;19909;-81
2022/06/26 10:39:49;;;;;;;;;;;;;;;22.01;100.00;101369.31;4999624;28;19914;-81
2022/06/26 10:45:01;;;;;;;;;;;;;;;22.62;100.00;101384.59;4998370;28;19921;-80
2022/06/26 10:47:38;;;;;;;;;;;;;;;22.70;100.00;101378.59;4997708;28;20299;-80
2022/06/26 10:50:04;;;;;;;;;;;;;;;23.16;100.00;101378.81;4997808;28;19910;-80
2022/06/26 10:52:31;;;;;;;;;;;;;;;23.51;100.00;101380.84;4997670;28;20411;-80
2022/06/26 10:55:00;;;;;;;;;;;;;;;23.81;100.00;101377.34;4997229;28;19910;-80
2022/06/26 10:57:33;;;;;;;;;;;;;;;24.17;100.00;101371.81;4999181;28;19968;-80
2022/06/26 11:00:00;;;;;;;;;;;;;;;24.12;100.00;101369.09;4996405;28;19918;-81
2022/06/26 11:02:25;;;;;;;;;;;;;;;24.25;100.00;101367.69;4982393;28;19910;-79
2022/06/26 11:04:51;;;;;;;;;;;;;;;24.47;100.00;101370.16;4991151;28;19925;-80
2022/06/26 11:07:17;;;;;;;;;;;;;;;24.51;100.00;101360.25;4998368;28;20386;-79
2022/06/26 11:09:43;;;;;;;;;;;;;;;24.72;100.00;101355.50;4990188;28;19910;-80
2022/06/26 11:12:09;;;;;;;;;;;;;;;24.76;100.00;101351.91;4979021;28;19941;-79
2022/06/26 11:14:34;;;;;;;;;;;;;;;24.90;100.00;101352.16;4983203;28;19976;-80
2022/06/26 11:16:59;;;;;;;;;;;;;;;25.18;100.00;101364.41;4999321;28;19913;-80
2022/06/26 11:19:26;;;;;;;;;;;;;;;25.28;100.00;101363.53;4998113;28;19985;-80
2022/06/26 11:22:12;;;;;;;;;;;;;;;25.54;100.00;101356.75;4999507;28;19909;-80
2022/06/26 11:24:54;;;;;;;;;;;;;;;25.64;100.00;101355.84;4994186;28;19918;-80
2022/06/26 11:27:22;;;;;;;;;;;;;;;25.60;100.00;101348.47;4998207;28;19906;-80
2022/06/26 11:29:48;;;;;;;;;;;;;;;25.77;100.00;101346.94;4995813;28;19932;-80
2022/06/26 11:32:13;;;;;;;;;;;;;;;25.81;100.00;101347.22;4962849;28;19914;-79
2022/06/26 11:34:48;;;;;;;;;;;;;;;25.95;100.00;101336.34;4978693;28;20308;-79
2022/06/26 11:37:13;;;;;;;;;;;;;;;26.02;100.00;101342.34;4978513;28;19910;-79
2022/06/26 11:39:40;;;;;;;;;;;;;;;26.23;100.00;101338.28;4967190;28;20068;-81
2022/06/26 11:42:15;;;;;;;;;;;;;;;26.37;100.00;101338.41;4996622;28;19910;-79
2022/06/26 11:44:47;;;;;;;;;;;;;;;26.71;100.00;101341.06;4996149;28;19913;-79
2022/06/26 11:47:12;;;;;;;;;;;;;;;26.48;100.00;101322.56;4996217;28;20346;-79
2022/06/26 11:49:37;;;;;;;;;;;;;;;26.82;100.00;101340.94;4979515;28;19921;-79
2022/06/26 11:52:03;;;;;;;;;;;;;;;26.97;100.00;101334.41;4994516;28;19960;-79
2022/06/26 11:54:28;;;;;;;;;;;;;;;26.91;100.00;101337.22;4979168;28;19928;-79
2022/06/26 11:56:54;;;;;;;;;;;;;;;26.66;100.00;101343.91;4995732;28;19922;-79
2022/06/26 11:59:19;;;;;;;;;;;;;;;26.62;100.00;101331.81;4976162;28;19940;-79
2022/06/26 12:01:44;;;;;;;;;;;;;;;26.89;100.00;101336.72;4983969;28;20344;-80
2022/06/26 12:04:10;;;;;;;;;;;;;;;27.14;100.00;101332.81;4995494;28;19914;-79
2022/06/26 12:06:40;;;;;;;;;;;;;;;27.29;100.00;101333.72;4989170;28;19917;-79
2022/06/26 12:09:32;;;;;;;;;;;;;;;27.12;100.00;101332.28;4996732;28;20023;-78
2022/06/26 12:11:57;;;;;;;;;;;;;;;27.42;100.00;101338.50;4995478;28;19910;-79
2022/06/26 12:14:24;;;;;;;;;;;;;;;27.52;100.00;101340.28;4998473;28;19928;-79
2022/06/26 12:16:51;;;;;;;;;;;;;;;27.47;100.00;101337.59;4997554;28;19910;-79
2022/06/26 12:19:17;;;;;;;;;;;;;;;27.59;100.00;101338.78;4991800;28;19920;-79
2022/06/26 12:21:46;;;;;;;;;;;;;;;27.76;100.00;101337.41;5002272;28;19941;-78
2022/06/26 12:24:12;;;;;;;;;;;;;;;27.93;100.00;101334.94;4999492;28;19910;-79
2022/06/26 12:26:38;;;;;;;;;;;;;;;27.79;100.00;101332.13;5005171;28;19916;-78
2022/06/26 12:29:08;;;;;;;;;;;;;;;27.72;100.00;101339.97;4983543;28;20856;-79
2022/06/26 12:31:33;;;;;;;;;;;;;;;27.58;100.00;101348.19;4991742;28;19918;-79
2022/06/26 12:33:58;;;;;;;;;;;;;;;27.64;100.00;101343.38;4996473;28;20307;-78
2022/06/26 12:36:23;;;;;;;;;;;;;;;27.66;100.00;101345.88;5005103;28;19902;-79
2022/06/26 12:38:49;;;;;;;;;;;;;;;27.72;100.00;101342.72;5001270;28;19901;-78
2022/06/26 12:41:17;;;;;;;;;;;;;;;27.68;100.00;101335.31;5006964;28;19945;-78